createdAt,value
2023-01-19T02:32:33.097Z,98761.03
2023-01-19T02:34:59.743Z,98741.81
2023-01-19T02:37:30.162Z,98731.84
2023-01-19T02:40:01.816Z,98740.53
2023-01-19T02:42:33.944Z,58233.47
2023-01-19T02:45:06.563Z,58233.47
2023-01-19T02:47:59.160Z,58233.47
2023-01-19T02:50:49.218Z,58233.47
2023-01-19T02:53:37.554Z,58233.47
2023-01-19T02:56:44.338Z,58233.47
2023-01-19T02:59:16.715Z,58233.47
2023-01-19T03:02:20.835Z,58233.47
2023-01-19T03:05:23.893Z,58233.47
2023-01-19T03:08:08.642Z,58233.47
2023-01-19T03:11:00.545Z,58233.47
2023-01-19T03:13:39.498Z,58233.47
2023-01-19T03:16:27.476Z,58233.47
2023-01-19T03:19:37.576Z,58233.47
2023-01-19T03:22:10.929Z,58233.47
2023-01-19T03:24:43.268Z,58233.47
2023-01-19T03:27:14.999Z,58233.47
2023-01-19T03:29:48.024Z,58233.47
2023-01-19T03:32:17.757Z,58233.47
2023-01-19T03:34:48.694Z,58233.47
2023-01-19T03:37:16.896Z,58233.47
2023-01-19T03:39:44.146Z,58233.47
2023-01-19T03:42:16.252Z,58233.47
2023-01-19T03:44:45.499Z,58233.47
2023-01-19T03:47:14.635Z,58233.47
2023-01-19T03:49:45.187Z,58233.47
2023-01-19T03:52:12.844Z,58233.47
2023-01-19T03:54:40.891Z,58233.47
2023-01-19T03:57:07.548Z,58233.47
2023-01-19T03:59:34.610Z,58233.47
2023-01-19T04:02:01.187Z,58233.47
2023-01-19T04:04:27.948Z,58233.47
2023-01-19T04:06:54.468Z,58233.47
2023-01-19T04:09:21.024Z,58233.47
2023-01-19T04:11:47.574Z,58233.47
2023-01-19T04:14:14.126Z,58233.47
2023-01-19T04:16:40.681Z,58233.47
2023-01-19T04:19:07.229Z,58233.47
2023-01-19T04:21:33.761Z,58233.47
2023-01-19T04:24:01.065Z,58233.47
2023-01-19T04:26:27.724Z,58233.47
2023-01-19T04:28:54.274Z,58233.47
2023-01-19T04:31:21.036Z,58233.47
2023-01-19T04:33:47.717Z,58233.47
2023-01-19T04:36:14.322Z,58233.47
2023-01-19T04:38:40.920Z,58233.47
2023-01-19T04:41:07.567Z,58233.47
2023-01-19T04:43:34.102Z,58233.47
2023-01-19T04:46:00.801Z,58233.47
2023-01-19T04:48:27.465Z,58233.47
2023-01-19T04:50:54.007Z,58233.47
2023-01-19T04:53:20.567Z,58233.47
2023-01-19T04:55:47.780Z,58233.47
2023-01-19T04:58:14.340Z,58233.47
2023-01-19T05:00:40.926Z,58233.47
2023-01-19T05:03:07.579Z,58233.47
2023-01-19T05:05:34.452Z,58233.47
2023-01-19T05:08:01.034Z,58233.47
2023-01-19T05:10:27.647Z,58233.47
2023-01-19T05:12:54.286Z,58233.47
2023-01-19T05:15:20.864Z,58233.47
2023-01-19T05:17:47.989Z,58233.47
2023-01-19T05:20:16.333Z,58233.47
2023-01-19T05:22:43.740Z,58233.47
2023-01-19T05:25:10.393Z,58233.47
2023-01-19T05:27:37.351Z,58233.47
2023-01-19T05:30:05.483Z,58233.47
2023-01-19T05:32:32.070Z,58233.47
2023-01-19T05:34:58.742Z,58233.47
2023-01-19T05:37:25.410Z,58233.47
2023-01-19T05:39:52.256Z,58233.47
2023-01-19T05:42:18.844Z,58233.47
2023-01-19T05:44:45.363Z,58233.47
2023-01-19T05:47:12.140Z,58233.47
2023-01-19T05:49:38.712Z,58233.47
2023-01-19T05:52:05.270Z,58233.47
2023-01-19T05:54:32.158Z,58233.47
2023-01-19T05:56:58.762Z,58233.47
2023-01-19T05:59:25.490Z,58233.47
2023-01-19T06:01:52.923Z,58233.47
2023-01-19T06:04:20.466Z,58233.47
2023-01-19T06:06:50.461Z,58233.47
2023-01-19T06:09:17.662Z,58233.47
2023-01-19T06:11:45.227Z,58233.47
2023-01-19T06:14:12.307Z,58233.47
2023-01-19T06:16:39.117Z,58233.47
2023-01-19T06:19:05.924Z,58233.47
2023-01-19T06:21:32.645Z,58233.47
2023-01-19T06:23:59.204Z,58233.47
2023-01-19T06:26:26.325Z,58233.47
2023-01-19T06:28:53.049Z,58233.47
2023-01-19T06:31:19.774Z,58233.47
2023-01-19T06:33:46.464Z,58233.47
2023-01-19T06:36:13.029Z,58233.47
2023-01-19T06:38:39.854Z,58233.47
2023-01-19T06:41:06.418Z,58233.47
2023-01-19T06:43:32.928Z,58233.47
2023-01-19T06:46:00.754Z,58233.47
2023-01-19T06:48:27.564Z,58233.47
2023-01-19T06:50:54.160Z,58233.47
2023-01-19T06:53:22.284Z,58233.47
2023-01-19T06:55:48.912Z,58233.47
2023-01-19T06:58:15.653Z,58233.47
2023-01-19T07:00:43.132Z,58233.47
2023-01-19T07:03:19.532Z,58233.47
2023-01-19T07:05:46.297Z,58233.47
2023-01-19T07:08:12.929Z,58233.47
2023-01-19T07:11:25.463Z,58233.47
2023-01-19T07:13:25.991Z,58233.47
2023-01-19T07:15:52.858Z,58233.47
2023-01-19T07:18:19.438Z,58233.47
2023-01-19T07:20:46.962Z,58233.47
2023-01-19T07:23:13.551Z,58233.47
2023-01-19T07:25:40.110Z,58233.47
2023-01-19T07:28:06.703Z,58233.47
2023-01-19T07:30:33.404Z,58233.47
2023-01-19T07:33:00.515Z,58233.47
2023-01-19T07:35:27.447Z,58233.47
2023-01-19T07:37:54.133Z,58233.47
2023-01-19T07:40:22.171Z,58233.47
2023-01-19T07:42:52.022Z,58233.47
2023-01-19T07:45:20.828Z,58233.47
2023-01-19T07:47:55.052Z,58233.47
2023-01-19T07:50:24.509Z,58233.47
2023-01-19T07:52:53.471Z,58233.47
2023-01-19T07:55:21.150Z,58233.47
2023-01-19T07:57:51.496Z,58233.47
2023-01-19T08:00:24.657Z,58233.47
2023-01-19T08:02:52.092Z,58233.47
2023-01-19T08:05:19.601Z,58233.47
2023-01-19T08:07:47.276Z,58233.47
2023-01-19T08:10:16.671Z,58233.47
2023-01-19T08:12:43.510Z,58233.47
2023-01-19T08:15:10.898Z,58233.47
2023-01-19T08:17:37.738Z,58233.47
2023-01-19T08:20:04.819Z,58233.47
2023-01-19T08:22:31.425Z,58233.47
2023-01-19T08:24:57.965Z,58233.47
2023-01-19T08:27:24.664Z,58233.47
2023-01-19T08:29:51.256Z,58233.47
2023-01-19T08:32:17.903Z,58233.47
2023-01-19T08:34:44.449Z,58233.47
2023-01-19T08:37:11.222Z,58233.47
2023-01-19T08:39:37.771Z,58233.47
2023-01-19T08:42:05.353Z,58233.47
2023-01-19T08:44:31.950Z,58233.47
2023-01-19T08:46:59.981Z,58233.47
2023-01-19T08:49:26.529Z,58233.47
2023-01-19T08:51:53.288Z,58233.47
2023-01-19T08:54:21.691Z,58233.47
2023-01-19T08:56:48.299Z,58233.47
2023-01-19T08:59:14.891Z,58233.47
2023-01-19T09:01:41.663Z,58233.47
2023-01-19T09:04:08.326Z,58233.47
2023-01-19T09:06:34.925Z,58233.47
2023-01-19T09:09:01.587Z,58233.47
2023-01-19T09:11:28.181Z,58233.47
2023-01-19T09:13:54.877Z,58233.47
2023-01-19T09:16:21.520Z,58233.47
2023-01-19T09:18:48.093Z,58233.47
2023-01-19T09:21:15.271Z,58233.47
2023-01-19T09:23:41.887Z,58233.47
2023-01-19T09:26:08.547Z,58233.47
2023-01-19T09:28:35.401Z,58233.47
2023-01-19T09:31:07.180Z,58233.47
2023-01-19T09:33:34.669Z,58233.47
2023-01-19T09:36:02.221Z,58233.47
2023-01-19T09:38:32.613Z,58233.47
2023-01-19T09:41:00.602Z,58233.47
2023-01-19T09:43:37.014Z,58233.47
2023-01-19T09:46:18.088Z,58233.47
2023-01-19T09:48:56.710Z,58233.47
2023-01-19T09:51:24.824Z,58233.47
2023-01-19T09:54:14.169Z,58233.47
2023-01-19T09:56:42.353Z,58233.47
2023-01-19T09:59:26.710Z,58233.47
2023-01-19T10:02:18.603Z,58233.47
2023-01-19T10:19:29.034Z,98581.13
2023-01-19T10:21:59.699Z,98585.38
2023-01-19T10:24:38.574Z,98571.81
2023-01-19T10:27:15.048Z,98581.34
2023-01-19T10:29:42.211Z,98580.41
2023-01-19T10:32:12.562Z,98566.97
2023-01-19T10:34:39.558Z,98571.16
2023-01-19T10:37:21.600Z,98572.78
2023-01-19T10:39:54.626Z,98564.34
2023-01-19T10:42:21.182Z,98556.66
2023-01-19T10:44:49.678Z,98553.31
2023-01-19T10:47:18.456Z,98550.81
2023-01-19T10:49:46.235Z,98566.97
2023-01-19T10:52:33.172Z,98563.47
2023-01-19T10:55:02.906Z,98569.44
2023-01-19T10:57:34.506Z,98567.66
2023-01-19T11:00:01.134Z,98550.59
2023-01-19T11:02:30.154Z,98543.06
2023-01-19T11:04:59.393Z,98538.03
2023-01-19T11:07:25.863Z,98547.38
2023-01-19T11:10:11.100Z,98527.97
2023-01-19T11:13:12.494Z,98533.03
2023-01-19T11:15:53.293Z,98527.13
2023-01-19T11:18:35.543Z,98527.06
2023-01-19T11:21:09.391Z,98528.78
2023-01-19T11:23:42.917Z,98516.94
2023-01-19T11:26:26.470Z,98516.09
2023-01-19T11:28:56.032Z,98514.38
2023-01-19T11:31:28.705Z,98510.97
2023-01-19T11:34:16.255Z,98500.78
2023-01-19T11:36:57.511Z,98502.56
2023-01-19T11:39:28.126Z,98503.41
2023-01-19T11:42:00.987Z,98506.81
2023-01-19T11:44:52.383Z,98511.97
2023-01-19T11:47:25.850Z,98501.78
2023-01-19T11:49:58.494Z,98506.94
2023-01-19T11:52:37.327Z,98508.69
2023-01-19T11:55:29.185Z,98497.72
2023-01-19T11:57:56.140Z,98481.53
2023-01-19T12:00:36.109Z,98497.72
2023-01-19T12:03:20.932Z,98513.00
2023-01-19T12:05:51.982Z,98517.19
2023-01-19T12:08:23.909Z,98516.38
2023-01-19T12:10:52.928Z,98518.16
2023-01-19T12:13:24.963Z,98507.16
2023-01-19T12:16:00.127Z,98500.38
2023-01-19T12:18:36.932Z,98488.44
2023-01-19T12:21:04.295Z,98494.38
2023-01-19T12:23:49.932Z,98501.22
2023-01-19T12:26:16.405Z,98505.44
2023-01-19T12:28:48.395Z,98501.22
2023-01-19T12:31:23.585Z,98503.78
2023-01-19T12:33:50.983Z,98499.47
2023-01-19T12:36:26.533Z,98505.53
2023-01-19T12:39:10.327Z,98507.25
2023-01-19T12:41:39.110Z,98508.13
2023-01-19T12:44:11.452Z,98494.59
2023-01-19T12:46:41.268Z,98502.25
2023-01-19T12:49:31.058Z,98499.72
2023-01-19T12:52:51.240Z,98507.41
2023-01-19T12:55:23.237Z,98501.47
2023-01-19T12:58:13.696Z,98493.84
2023-01-19T13:00:42.829Z,98510.00
2023-01-19T13:03:18.230Z,98507.47
2023-01-19T13:05:44.738Z,98503.22
2023-01-19T13:08:14.073Z,98498.97
2023-01-19T13:29:35.615Z,98527.13
2023-01-19T13:32:15.947Z,98537.31
2023-01-19T13:34:46.779Z,98533.88
2023-01-19T13:37:21.651Z,98527.13
2023-01-19T13:39:51.553Z,98540.72
2023-01-19T13:42:32.980Z,98543.25
2023-01-19T13:45:03.997Z,98543.28
2023-01-19T13:47:43.719Z,98549.25
2023-01-19T13:50:21.691Z,98553.50
2023-01-19T13:52:50.791Z,98556.88
2023-01-19T13:55:18.607Z,98552.66
2023-01-19T13:57:46.543Z,98553.53
2023-01-19T14:00:14.335Z,98567.97
2023-01-19T14:02:53.582Z,98568.84
2023-01-19T14:05:22.036Z,98573.94
2023-01-19T14:07:48.884Z,98563.78
2023-01-19T14:10:16.803Z,98573.06
2023-01-19T14:12:58.541Z,98564.63
2023-01-19T14:15:26.157Z,98564.63
2023-01-19T14:18:18.129Z,98568.03
2023-01-19T14:21:06.208Z,98561.19
2023-01-19T14:23:43.677Z,98567.16
2023-01-19T14:26:39.096Z,98553.59
2023-01-19T14:29:26.467Z,98558.69
2023-01-19T14:31:53.436Z,98552.72
2023-01-19T14:34:34.782Z,98556.97
2023-01-19T14:37:04.053Z,98557.81
2023-01-19T14:40:33.433Z,98558.69
2023-01-19T14:43:05.670Z,98555.28
2023-01-19T14:45:43.051Z,98550.16
2023-01-19T14:48:18.186Z,98556.13
2023-01-19T14:51:02.102Z,98556.97
2023-01-19T14:53:36.592Z,98551.03
2023-01-19T14:56:05.116Z,98552.72
2023-01-19T14:58:34.662Z,98562.13
2023-01-19T15:01:02.371Z,98556.97
2023-01-19T15:03:46.030Z,98555.28
2023-01-19T15:06:18.717Z,98569.72
2023-01-19T15:08:46.115Z,98570.59
2023-01-19T15:11:21.980Z,98570.59
2023-01-19T15:13:49.422Z,98574.03
2023-01-19T15:16:16.302Z,98572.31
2023-01-19T15:18:42.885Z,98574.03
2023-01-19T15:21:15.387Z,98578.28
2023-01-19T15:23:42.053Z,98575.78
2023-01-19T15:26:15.805Z,98574.94
2023-01-19T15:28:42.844Z,98575.78
2023-01-19T15:31:15.107Z,98569.03
2023-01-19T15:33:41.909Z,98563.06
2023-01-19T15:36:17.925Z,98564.75
2023-01-19T15:38:47.541Z,98573.25
2023-01-19T15:41:18.151Z,98561.38
2023-01-19T15:43:44.668Z,98564.78
2023-01-19T15:46:15.549Z,98565.69
2023-01-19T15:48:42.493Z,98563.94
2023-01-19T15:51:13.750Z,98570.81
2023-01-19T15:53:44.075Z,98574.19
2023-01-19T15:56:37.077Z,98570.81
2023-01-19T15:59:03.784Z,98571.69
2023-01-19T16:01:34.683Z,98580.16
2023-01-19T16:04:04.090Z,98578.50
2023-01-19T16:06:33.901Z,98589.56
2023-01-19T16:09:04.288Z,98592.09
2023-01-19T16:11:33.274Z,98581.06
2023-01-19T16:14:00.451Z,98581.09
2023-01-19T16:16:30.183Z,98594.78
2023-01-19T16:18:57.041Z,98590.50
2023-01-19T16:21:23.889Z,98592.25
2023-01-19T16:23:50.724Z,98593.94
2023-01-19T16:26:29.381Z,98587.97
2023-01-19T16:28:57.884Z,98593.94
2023-01-19T16:31:24.974Z,98591.38
2023-01-19T16:33:51.558Z,98577.81
2023-01-19T16:36:30.098Z,98582.91
2023-01-19T16:39:07.008Z,98580.41
2023-01-19T16:41:34.939Z,98572.72
2023-01-19T16:44:01.920Z,98571.88
2023-01-19T16:46:32.537Z,98568.53
2023-01-19T16:49:01.980Z,98566.84
2023-01-19T16:51:28.865Z,98576.22
2023-01-19T16:53:55.484Z,98575.41
2023-01-19T16:56:22.058Z,98572.91
2023-01-19T16:58:48.730Z,98582.31
2023-01-19T17:01:20.163Z,98572.97
2023-01-19T17:03:47.647Z,98563.63
2023-01-19T17:06:18.433Z,98566.16
2023-01-19T17:08:45.403Z,98572.97
2023-01-19T17:11:19.452Z,98565.34
2023-01-19T17:13:47.456Z,98571.38
2023-01-19T17:16:14.152Z,98573.09
2023-01-19T17:18:40.901Z,98577.38
2023-01-19T17:21:09.803Z,98571.47
2023-01-19T17:23:37.495Z,98565.53
2023-01-19T17:26:05.051Z,98566.41
2023-01-19T17:28:31.609Z,98565.59
2023-01-19T17:31:13.652Z,98553.63
2023-01-19T17:33:40.526Z,98554.44
2023-01-19T17:36:10.370Z,98562.16
2023-01-19T17:38:37.323Z,98564.66
2023-01-19T17:41:16.174Z,98560.41
2023-01-19T17:43:43.316Z,98554.41
2023-01-19T17:46:10.754Z,98556.91
2023-01-19T17:48:38.213Z,98549.19
2023-01-19T17:51:08.347Z,98556.00
2023-01-19T17:53:36.960Z,98554.19
2023-01-19T17:56:12.449Z,98551.59
2023-01-19T17:58:40.208Z,98550.69
2023-01-19T22:21:46.366Z,98721.44
2023-01-19T22:24:12.938Z,98707.09
2023-01-19T22:26:39.497Z,98712.25
2023-01-19T22:29:11.176Z,98723.34
2023-01-19T22:31:39.172Z,98708.06
2023-01-19T22:34:10.179Z,98720.03
2023-01-19T22:36:37.786Z,98719.25
2023-01-19T22:39:06.947Z,98717.53
2023-01-19T22:41:34.620Z,98725.19
2023-01-19T22:44:03.616Z,98720.13
2023-01-19T22:46:32.757Z,98718.38
2023-01-19T22:49:00.170Z,98726.91
2023-01-19T22:51:27.908Z,98732.00
2023-01-19T22:53:54.481Z,98743.09
2023-01-19T22:56:23.455Z,98741.38
2023-01-19T22:58:50.336Z,98741.34
2023-01-19T23:01:20.405Z,98749.84
2023-01-19T23:03:47.351Z,98749.84
2023-01-19T23:06:20.343Z,98757.56
2023-01-19T23:08:47.292Z,98754.91
2023-01-19T23:11:19.388Z,98754.09
2023-01-19T23:13:46.343Z,98737.09
2023-01-19T23:16:13.822Z,98733.69
2023-01-19T23:18:41.603Z,98742.16
2023-01-19T23:21:12.745Z,98737.03
2023-01-19T23:23:40.202Z,98746.34
2023-01-19T23:26:13.887Z,98745.47
2023-01-19T23:28:41.167Z,98750.56
2023-01-19T23:31:31.736Z,98746.28
2023-01-19T23:34:01.382Z,98751.38
2023-01-19T23:36:29.945Z,98749.72
2023-01-19T23:38:58.486Z,98748.03
2023-01-19T23:41:26.500Z,98742.84
2023-01-19T23:43:53.030Z,98751.34
2023-01-19T23:46:20.381Z,98744.44
2023-01-19T23:48:47.445Z,98745.34
2023-01-19T23:51:20.892Z,98751.31
2023-01-19T23:53:47.993Z,98757.22
2023-01-19T23:56:17.459Z,98753.81
2023-01-19T23:58:48.516Z,98756.34
